createdAt,value
2023-03-22T00:03:01.145Z,49.74
2023-03-22T00:07:01.033Z,45.80
2023-03-22T00:11:00.955Z,47.18
2023-03-22T00:15:01.256Z,50.44
2023-03-22T00:19:00.856Z,46.51
2023-03-22T00:23:00.811Z,46.34
2023-03-22T00:27:00.823Z,47.81
2023-03-22T00:31:00.817Z,43.73
2023-03-22T00:35:00.682Z,46.44
2023-03-22T00:39:00.671Z,43.88
2023-03-22T00:43:00.647Z,43.62
2023-03-22T00:47:00.618Z,42.63
2023-03-22T00:51:00.577Z,45.38
2023-03-22T00:55:00.541Z,42.82
2023-03-22T00:59:00.492Z,43.40
2023-03-22T01:03:00.450Z,44.57
2023-03-22T01:07:00.432Z,44.79
2023-03-22T01:11:00.401Z,42.31
2023-03-22T01:15:00.381Z,38.48
2023-03-22T01:19:00.371Z,40.69
2023-03-22T01:23:00.358Z,43.40
2023-03-22T01:27:00.334Z,41.36
2023-03-22T01:31:00.389Z,38.46
2023-03-22T01:35:00.244Z,39.99
2023-03-22T01:39:00.207Z,39.73
2023-03-22T01:43:00.214Z,39.03
2023-03-22T01:47:00.190Z,42.37
2023-03-22T01:51:00.190Z,41.73
2023-03-22T01:55:00.159Z,40.10
2023-03-22T01:59:00.149Z,40.43
2023-03-22T02:03:00.202Z,40.39
2023-03-22T02:07:00.120Z,40.06
2023-03-22T02:11:00.069Z,37.61
2023-03-22T02:15:00.054Z,39.46
2023-03-22T02:19:00.030Z,37.82
2023-03-22T02:23:00.013Z,37.64
2023-03-22T02:26:59.990Z,37.62
2023-03-22T02:30:59.968Z,39.97
2023-03-22T02:34:59.933Z,34.38
2023-03-22T02:38:59.914Z,38.16
2023-03-22T02:43:00.304Z,34.88
2023-03-22T02:46:59.937Z,35.60
2023-03-22T02:50:59.857Z,35.04
2023-03-22T02:54:59.834Z,36.42
2023-03-22T02:58:59.815Z,36.51
2023-03-22T03:02:59.804Z,34.65
2023-03-22T03:06:59.780Z,31.82
2023-03-22T03:10:59.793Z,31.33
2023-03-22T03:14:59.777Z,33.23
2023-03-22T03:18:59.760Z,36.38
2023-03-22T03:22:59.746Z,30.14
2023-03-22T03:26:59.735Z,32.70
2023-03-22T03:30:59.715Z,30.41
2023-03-22T03:34:59.724Z,31.13
2023-03-22T03:38:59.705Z,32.56
2023-03-22T03:42:59.706Z,29.17
2023-03-22T03:46:59.695Z,33.57
2023-03-22T03:50:59.421Z,27.39
2023-03-22T03:54:59.154Z,30.17
2023-03-22T03:58:58.886Z,32.23
2023-03-22T04:02:58.624Z,32.43
2023-03-22T04:06:58.354Z,32.05
2023-03-22T04:10:58.087Z,29.48
2023-03-22T04:14:57.797Z,26.61
2023-03-22T04:18:57.528Z,27.72
2023-03-22T04:22:57.244Z,26.13
2023-03-22T04:26:56.966Z,30.68
2023-03-22T04:30:56.700Z,28.45
2023-03-22T04:34:56.389Z,29.25
2023-03-22T04:38:56.141Z,30.35
2023-03-22T04:42:56.004Z,29.64
2023-03-22T04:46:55.931Z,27.19
2023-03-22T04:50:55.741Z,29.38
2023-03-22T04:54:55.614Z,25.00
2023-03-22T04:58:55.487Z,29.45
2023-03-22T05:02:55.391Z,27.23
2023-03-22T05:06:55.220Z,28.91
2023-03-22T05:10:55.038Z,28.91
2023-03-22T05:14:54.894Z,27.75
2023-03-22T05:18:54.739Z,29.17
2023-03-22T05:22:54.594Z,29.21
2023-03-22T05:26:54.420Z,28.86
2023-03-22T05:30:56.661Z,27.94
2023-03-22T05:34:53.974Z,29.49
2023-03-22T05:38:53.680Z,26.79
2023-03-22T05:42:53.407Z,27.76
2023-03-22T05:46:53.189Z,27.72
2023-03-22T05:50:52.813Z,28.05
2023-03-22T05:54:52.474Z,27.29
2023-03-22T05:58:52.176Z,28.27
2023-03-22T06:02:51.888Z,30.25
2023-03-22T06:06:51.536Z,28.55
2023-03-22T06:10:51.209Z,27.39
2023-03-22T06:14:50.914Z,29.89
2023-03-22T06:18:50.577Z,25.99
2023-03-22T06:22:50.266Z,29.46
2023-03-22T06:26:49.944Z,30.07
2023-03-22T06:30:49.703Z,30.49
2023-03-22T06:34:49.326Z,30.60
2023-03-22T06:38:48.990Z,25.36
2023-03-22T06:42:48.656Z,30.51
2023-03-22T06:46:48.329Z,31.05
2023-03-22T06:50:48.142Z,29.17
2023-03-22T06:54:47.970Z,28.11
2023-03-22T06:58:47.773Z,29.60
2023-03-22T07:02:47.587Z,28.33
2023-03-22T07:06:47.387Z,26.33
2023-03-22T07:10:47.188Z,25.00
2023-03-22T07:14:46.956Z,28.69
2023-03-22T07:18:46.719Z,30.11
2023-03-22T07:22:46.472Z,30.00
2023-03-22T07:26:46.251Z,34.15
2023-03-22T07:30:45.947Z,33.50
2023-03-22T07:34:45.659Z,32.32
2023-03-22T07:38:45.374Z,32.98
2023-03-22T07:42:45.070Z,29.95
2023-03-22T07:46:44.864Z,27.60
2023-03-22T07:50:44.551Z,29.66
2023-03-22T07:54:44.250Z,28.13
2023-03-22T07:58:44.011Z,32.22
2023-03-22T08:02:43.746Z,25.63
2023-03-22T08:06:43.474Z,28.99
2023-03-22T08:10:43.253Z,26.23
2023-03-22T08:14:43.011Z,25.00
2023-03-22T08:18:44.408Z,29.62
2023-03-22T08:22:42.503Z,29.24
2023-03-22T08:26:42.138Z,27.30
2023-03-22T08:30:41.959Z,28.68
2023-03-22T08:34:41.456Z,27.15
2023-03-22T08:38:41.104Z,25.91
2023-03-22T08:42:40.829Z,31.11
2023-03-22T08:46:40.444Z,29.22
2023-03-22T08:50:40.082Z,29.72
2023-03-22T08:54:39.758Z,26.25
2023-03-22T08:58:39.380Z,28.73
2023-03-22T09:02:39.033Z,30.73
2023-03-22T09:06:38.919Z,27.95
2023-03-22T09:10:38.797Z,29.78
2023-03-22T09:14:38.661Z,31.13
2023-03-22T09:18:38.528Z,31.16
2023-03-22T09:22:38.374Z,31.42
2023-03-22T09:26:38.205Z,31.19
2023-03-22T09:30:38.430Z,33.58
2023-03-22T09:34:37.797Z,32.64
2023-03-22T09:38:37.538Z,32.59
2023-03-22T09:42:37.307Z,32.68
2023-03-22T09:46:37.228Z,32.67
2023-03-22T09:50:36.766Z,33.98
2023-03-22T09:54:36.491Z,31.41
2023-03-22T09:58:36.245Z,33.36
2023-03-22T10:02:36.006Z,29.91
2023-03-22T10:06:35.592Z,31.34
2023-03-22T10:10:35.268Z,32.14
2023-03-22T10:14:34.947Z,29.35
2023-03-22T10:18:34.661Z,31.34
2023-03-22T10:22:34.305Z,31.55
2023-03-22T10:26:33.960Z,33.33
2023-03-22T10:30:33.661Z,30.15
2023-03-22T10:34:33.302Z,30.32
2023-03-22T10:38:32.972Z,35.69
2023-03-22T10:42:32.610Z,31.66
2023-03-22T10:46:32.333Z,32.98
2023-03-22T10:50:31.957Z,34.37
2023-03-22T10:54:31.637Z,37.37
2023-03-22T10:58:31.298Z,35.61
2023-03-22T11:02:31.186Z,34.07
2023-03-22T11:06:30.654Z,35.37
2023-03-22T11:10:30.402Z,36.13
2023-03-22T11:14:30.052Z,37.18
2023-03-22T11:18:29.748Z,36.86
2023-03-22T11:22:29.427Z,36.00
2023-03-22T11:26:29.155Z,37.95
2023-03-22T11:30:28.807Z,41.21
2023-03-22T11:34:28.503Z,40.90
2023-03-22T11:38:28.205Z,40.72
2023-03-22T11:42:27.917Z,39.75
2023-03-22T11:46:27.679Z,39.47
2023-03-22T11:50:27.378Z,43.53
2023-03-22T11:54:27.117Z,41.55
2023-03-22T11:58:26.871Z,42.23
2023-03-22T12:02:26.770Z,42.30
2023-03-22T12:06:26.396Z,42.88
2023-03-22T12:10:26.136Z,40.21
2023-03-22T12:14:25.903Z,41.55
2023-03-22T12:18:25.674Z,41.94
2023-03-22T12:22:25.408Z,41.03
2023-03-22T12:26:25.176Z,39.70
2023-03-22T12:30:24.960Z,39.99
2023-03-22T12:34:24.730Z,41.33
2023-03-22T12:38:24.519Z,41.31
2023-03-22T12:42:24.338Z,41.04
2023-03-22T12:46:24.206Z,42.40
2023-03-22T12:50:23.959Z,41.77
2023-03-22T12:54:23.788Z,42.89
2023-03-22T12:58:23.670Z,41.61
2023-03-22T13:02:23.477Z,43.40
2023-03-22T13:06:23.309Z,42.66
2023-03-22T13:10:23.150Z,41.58
2023-03-22T13:14:22.993Z,42.00
2023-03-22T13:18:22.845Z,43.44
2023-03-22T13:22:22.719Z,42.44
2023-03-22T13:26:22.588Z,42.38
2023-03-22T13:30:22.447Z,41.48
2023-03-22T13:34:22.319Z,41.66
2023-03-22T13:38:22.218Z,42.19
2023-03-22T13:42:22.097Z,41.48
2023-03-22T13:46:22.163Z,41.60
2023-03-22T13:50:21.902Z,42.55
2023-03-22T13:54:21.753Z,41.06
2023-03-22T13:58:21.638Z,40.97
2023-03-22T14:02:21.552Z,39.62
2023-03-22T14:06:21.424Z,39.08
2023-03-22T14:10:21.328Z,41.35
2023-03-22T14:14:21.223Z,39.33
2023-03-22T14:18:20.968Z,39.76
2023-03-22T14:47:21.270Z,25.00
2023-03-22T14:51:21.313Z,25.62
2023-03-22T14:55:21.339Z,25.00
2023-03-22T14:59:21.369Z,26.41
2023-03-22T15:03:21.418Z,25.00
2023-03-22T15:07:21.409Z,26.06
2023-03-22T15:11:21.426Z,29.95
2023-03-22T15:15:21.440Z,28.91
2023-03-22T15:19:21.541Z,27.97
2023-03-22T15:23:21.484Z,29.85
2023-03-22T15:27:21.632Z,27.73
2023-03-22T15:31:21.852Z,29.10
2023-03-22T15:35:22.023Z,28.09
2023-03-22T15:39:22.305Z,30.84
2023-03-22T15:43:22.547Z,31.51
2023-03-22T15:47:22.772Z,30.01
2023-03-22T15:51:23.017Z,31.96
2023-03-22T15:55:23.225Z,32.76
2023-03-22T15:59:23.358Z,33.25
2023-03-22T16:03:23.596Z,30.45
2023-03-22T16:07:23.712Z,32.29
2023-03-22T16:11:23.787Z,32.69
2023-03-22T16:15:23.868Z,31.82
2023-03-22T16:19:23.915Z,36.96
2023-03-22T16:23:23.974Z,35.56
2023-03-22T16:27:24.117Z,31.77
2023-03-22T16:31:24.181Z,32.01
2023-03-22T16:35:24.161Z,32.66
2023-03-22T16:39:24.208Z,34.85
2023-03-22T16:43:24.296Z,34.69
2023-03-22T16:47:24.378Z,33.55
2023-03-22T16:51:24.458Z,37.10
2023-03-22T16:55:24.519Z,34.70
2023-03-22T16:59:24.593Z,35.29
2023-03-22T17:03:24.667Z,36.64
2023-03-22T17:07:24.717Z,33.86
2023-03-22T17:11:24.865Z,33.79
2023-03-22T17:15:24.852Z,33.59
2023-03-22T17:19:24.925Z,36.03
2023-03-22T17:23:25.047Z,36.30
2023-03-22T17:27:25.165Z,36.94
2023-03-22T17:31:25.340Z,37.93
2023-03-22T17:35:25.346Z,40.04
2023-03-22T17:39:48.304Z,36.49
2023-03-22T17:43:26.608Z,39.16
2023-03-22T17:51:25.637Z,40.02
2023-03-22T17:55:42.580Z,37.96
2023-03-22T17:59:26.779Z,38.69
2023-03-22T18:03:25.824Z,39.46
2023-03-22T18:07:25.874Z,39.73
2023-03-22T18:11:25.928Z,41.41
2023-03-22T18:15:26.025Z,36.03
2023-03-22T18:19:26.075Z,40.40
2023-03-22T18:23:26.115Z,41.25
2023-03-22T18:27:26.520Z,37.60
2023-03-22T18:31:27.035Z,39.55
2023-03-22T18:35:26.443Z,37.08
2023-03-22T18:43:27.633Z,38.87
2023-03-22T18:47:26.689Z,40.01
2023-03-22T18:51:31.815Z,38.57
2023-03-22T18:55:29.964Z,40.74
2023-03-22T18:59:27.851Z,39.96
2023-03-22T19:03:26.938Z,40.18
2023-03-22T19:07:46.931Z,37.11
2023-03-22T19:11:28.066Z,38.67
2023-03-22T19:19:27.214Z,39.61
2023-03-22T19:23:27.284Z,35.50
2023-03-22T19:27:28.323Z,38.16
2023-03-22T19:31:27.377Z,37.32
2023-03-22T19:35:27.433Z,36.34
2023-03-22T19:39:27.488Z,37.36
2023-03-22T19:43:27.631Z,36.15
2023-03-22T19:47:27.825Z,37.30
2023-03-22T19:51:27.940Z,35.64
2023-03-22T19:55:28.071Z,35.55
2023-03-22T19:59:31.538Z,37.98
2023-03-22T20:03:28.273Z,37.36
2023-03-22T20:07:28.350Z,36.35
2023-03-22T20:11:35.059Z,37.80
2023-03-22T20:15:29.434Z,39.90
2023-03-22T20:19:28.497Z,36.04
2023-03-22T20:23:28.568Z,36.53
2023-03-22T20:27:28.617Z,35.13
2023-03-22T20:31:28.829Z,37.18
2023-03-22T20:35:28.960Z,35.39
2023-03-22T20:39:29.144Z,37.80
2023-03-22T20:43:29.319Z,35.57
2023-03-22T20:47:29.505Z,37.32
2023-03-22T20:51:29.682Z,38.71
2023-03-22T20:55:29.873Z,34.77
2023-03-22T20:59:30.056Z,34.13
2023-03-22T21:03:30.221Z,33.35
2023-03-22T21:07:30.451Z,33.79
2023-03-22T21:11:30.649Z,35.89
2023-03-22T21:15:30.870Z,34.10
2023-03-22T21:19:31.065Z,32.73
2023-03-22T21:23:31.286Z,33.76
2023-03-22T21:27:31.506Z,34.21
2023-03-22T21:31:31.719Z,35.31
2023-03-22T21:35:31.946Z,32.87
2023-03-22T21:39:32.156Z,34.31
2023-03-22T21:43:32.375Z,31.21
2023-03-22T21:47:32.609Z,35.38
2023-03-22T21:51:32.821Z,31.88
2023-03-22T21:55:33.017Z,30.56
2023-03-22T21:59:33.225Z,32.27
2023-03-22T22:03:33.440Z,31.49
2023-03-22T22:07:33.649Z,30.60
2023-03-22T22:11:33.877Z,32.50
2023-03-22T22:15:34.107Z,30.90
2023-03-22T22:19:34.335Z,31.75
2023-03-22T22:23:34.533Z,31.86
2023-03-22T22:27:34.750Z,31.75
2023-03-22T22:31:34.992Z,34.29
2023-03-22T22:35:35.230Z,31.47
2023-03-22T22:39:35.417Z,30.97
2023-03-22T22:43:35.607Z,29.51
2023-03-22T22:47:35.833Z,31.14
2023-03-22T22:51:36.057Z,29.09
2023-03-22T22:55:36.317Z,30.18
2023-03-22T22:59:36.557Z,28.71
2023-03-22T23:03:36.817Z,30.91
2023-03-22T23:07:37.018Z,30.23
2023-03-22T23:11:37.253Z,29.99
2023-03-22T23:15:37.511Z,29.08
2023-03-22T23:19:37.784Z,27.73
2023-03-22T23:23:38.045Z,29.38
2023-03-22T23:27:39.132Z,27.91
2023-03-22T23:31:39.203Z,30.89
2023-03-22T23:35:38.312Z,30.69
2023-03-22T23:39:38.357Z,29.53
2023-03-22T23:43:38.439Z,27.51
2023-03-22T23:47:38.500Z,28.38
2023-03-22T23:51:39.230Z,28.49
2023-03-22T23:55:38.852Z,27.47
2023-03-22T23:59:39.086Z,27.69
